Time;durP1;ratioP1;P1;durP2;ratioP2;P2;SDS_P1;SDS_P2;PMS_P1;PMS_P2;Temp;Humidity;BMP_temperature;BMP_pressure;BME280_temperature;BME280_humidity;BME280_pressure;Samples;Min_cycle;Max_cycle;Signal;HPM_P1;HPM_P2
2023/10/17 00:02:25;;;;;;;3.78;1.23;;;17.20;46.20;;;;;;5091793;28;20714;-57
2023/10/17 00:04:52;;;;;;;3.05;1.35;;;17.20;46.10;;;;;;5092176;28;20214;-58
2023/10/17 00:07:20;;;;;;;2.20;1.30;;;17.20;46.20;;;;;;5094108;28;20650;-57
2023/10/17 00:09:48;;;;;;;2.00;1.20;;;17.20;46.20;;;;;;5096108;28;20557;-57
2023/10/17 00:12:33;;;;;;;3.55;1.42;;;17.20;46.20;;;;;;5095685;28;20224;-57
2023/10/17 00:15:13;;;;;;;3.00;1.50;;;17.20;46.20;;;;;;5095936;28;20276;-57
2023/10/17 00:17:40;;;;;;;3.10;1.50;;;17.20;46.20;;;;;;5096026;28;20213;-56
2023/10/17 00:20:16;;;;;;;3.25;1.30;;;17.20;46.20;;;;;;5095578;28;20190;-57
2023/10/17 00:22:43;;;;;;;3.13;1.77;;;17.20;46.20;;;;;;5095470;28;20269;-57
2023/10/17 00:25:10;;;;;;;6.13;1.67;;;17.20;46.20;;;;;;5095411;28;20731;-57
2023/10/17 00:27:37;;;;;;;2.75;1.25;;;17.20;46.20;;;;;;5095506;28;20691;-58
2023/10/17 00:30:07;;;;;;;3.28;1.30;;;17.10;46.20;;;;;;5095363;28;20190;-58
2023/10/17 00:32:41;;;;;;;2.22;1.20;;;17.20;46.30;;;;;;5095605;28;20279;-57
2023/10/17 00:35:13;;;;;;;1.52;1.20;;;17.20;46.20;;;;;;5095568;28;20190;-57
2023/10/17 00:37:44;;;;;;;2.53;1.30;;;17.20;46.30;;;;;;5095013;28;20696;-55
2023/10/17 00:40:34;;;;;;;2.30;1.30;;;17.20;46.60;;;;;;5095179;28;20286;-58
2023/10/17 00:42:59;;;;;;;3.45;1.30;;;17.20;46.30;;;;;;5094587;28;20221;-58
2023/10/17 00:45:29;;;;;;;2.08;1.50;;;17.20;46.20;;;;;;5095359;28;20218;-58
2023/10/17 00:47:56;;;;;;;2.58;1.30;;;17.20;46.20;;;;;;5095462;28;20304;-57
2023/10/17 00:50:24;;;;;;;2.40;1.20;;;17.20;46.30;;;;;;5094893;28;20273;-58
2023/10/17 00:52:51;;;;;;;4.60;1.48;;;17.20;46.40;;;;;;5095328;28;20232;-58
2023/10/17 00:55:18;;;;;;;3.05;1.50;;;17.20;46.30;;;;;;5095243;28;20186;-58
2023/10/17 00:57:48;;;;;;;2.72;1.33;;;17.20;46.40;;;;;;5094545;28;20221;-57
2023/10/17 01:00:23;;;;;;;2.65;1.30;;;17.20;46.40;;;;;;5094629;28;20229;-56
2023/10/17 01:02:58;;;;;;;2.58;1.30;;;17.20;46.40;;;;;;5095053;28;20613;-58
2023/10/17 01:05:26;;;;;;;1.98;1.20;;;17.20;46.40;;;;;;5094644;28;20213;-58
2023/10/17 01:07:53;;;;;;;3.15;1.30;;;17.10;46.30;;;;;;5095095;28;20283;-58
2023/10/17 01:10:24;;;;;;;3.13;1.33;;;17.20;46.40;;;;;;5094970;28;20189;-58
2023/10/17 01:12:53;;;;;;;2.38;1.40;;;17.20;46.40;;;;;;5094112;28;20296;-58
2023/10/17 01:15:21;;;;;;;3.03;1.40;;;17.20;46.40;;;;;;5094811;28;20225;-58
2023/10/17 01:17:48;;;;;;;2.58;1.50;;;17.20;46.40;;;;;;5093756;28;20263;-58
2023/10/17 01:20:19;;;;;;;2.33;1.10;;;17.20;46.40;;;;;;5094045;28;20660;-57
2023/10/17 01:22:46;;;;;;;2.47;1.30;;;17.20;46.40;;;;;;5094382;28;20222;-57
2023/10/17 01:25:24;;;;;;;3.33;1.23;;;17.20;46.40;;;;;;5094565;28;20698;-58
2023/10/17 01:27:52;;;;;;;3.65;1.48;;;17.20;46.50;;;;;;5093985;28;20703;-58
2023/10/17 01:30:19;;;;;;;3.20;1.30;;;17.20;46.50;;;;;;5094531;28;20197;-57
2023/10/17 01:32:47;;;;;;;1.80;1.30;;;17.10;46.40;;;;;;5094471;28;20218;-58
2023/10/17 01:35:19;;;;;;;2.13;1.38;;;17.20;47.20;;;;;;5094047;28;20193;-58
2023/10/17 01:37:46;;;;;;;2.45;1.52;;;17.20;46.50;;;;;;5094407;28;20237;-58
2023/10/17 01:40:22;;;;;;;1.83;1.20;;;17.20;46.60;;;;;;5094282;28;20231;-58
2023/10/17 01:42:50;;;;;;;2.03;1.27;;;17.20;46.50;;;;;;5093842;28;20253;-56
2023/10/17 01:45:19;;;;;;;2.42;1.30;;;17.10;46.50;;;;;;5093741;28;20301;-57
2023/10/17 01:47:46;;;;;;;2.40;1.30;;;17.10;46.60;;;;;;5094304;28;20309;-55
2023/10/17 01:50:14;;;;;;;3.78;1.40;;;17.10;46.60;;;;;;5093491;28;20190;-58
2023/10/17 01:52:42;;;;;;;1.92;1.30;;;17.20;46.70;;;;;;5093756;28;20692;-58
2023/10/17 01:55:10;;;;;;;3.05;1.40;;;17.20;46.60;;;;;;5093861;28;20198;-58
2023/10/17 01:57:40;;;;;;;1.77;1.20;;;17.10;46.60;;;;;;5093662;28;20224;-57
2023/10/17 02:00:17;;;;;;;1.73;1.27;;;17.20;46.70;;;;;;5093794;28;20233;-58
2023/10/17 02:02:44;;;;;;;2.47;1.48;;;17.10;46.60;;;;;;5093563;28;20211;-58
2023/10/17 02:05:12;;;;;;;2.53;1.33;;;17.10;46.70;;;;;;5093445;28;20213;-57
2023/10/17 02:07:39;;;;;;;3.88;1.98;;;17.10;46.60;;;;;;5093845;28;20217;-58
2023/10/17 02:10:08;;;;;;;1.92;1.15;;;17.10;46.60;;;;;;5093455;28;20197;-58
2023/10/17 02:12:36;;;;;;;2.22;1.70;;;17.10;46.60;;;;;;5093319;28;20220;-58
2023/10/17 02:15:06;;;;;;;2.30;1.30;;;17.20;46.70;;;;;;5093658;28;20190;-58
2023/10/17 02:17:35;;;;;;;4.05;1.40;;;17.10;46.70;;;;;;5093557;28;20214;-58
2023/10/17 02:20:21;;;;;;;2.78;1.45;;;17.10;46.70;;;;;;5093460;28;20186;-59
2023/10/17 02:22:52;;;;;;;2.25;1.50;;;17.10;46.80;;;;;;5093450;28;20221;-57
2023/10/17 02:25:21;;;;;;;2.45;1.63;;;17.10;46.70;;;;;;5093059;28;20346;-58
2023/10/17 02:27:49;;;;;;;2.53;1.45;;;17.10;46.80;;;;;;5092792;28;20707;-58
2023/10/17 02:30:19;;;;;;;1.70;1.52;;;17.20;46.80;;;;;;5093110;28;20277;-57
2023/10/17 02:32:51;;;;;;;1.48;1.33;;;17.10;46.80;;;;;;5093020;28;20283;-57
2023/10/17 02:35:21;;;;;;;1.90;1.33;;;17.10;46.90;;;;;;5092872;28;20263;-58
2023/10/17 02:37:48;;;;;;;2.65;1.42;;;17.10;46.80;;;;;;5093309;28;20221;-57
2023/10/17 02:40:20;;;;;;;4.03;1.30;;;17.10;46.80;;;;;;5093472;28;20193;-58
2023/10/17 02:42:47;;;;;;;2.03;1.27;;;17.10;46.80;;;;;;5092767;28;20305;-55
2023/10/17 02:45:24;;;;;;;3.13;1.70;;;17.10;46.90;;;;;;5093012;28;20218;-57
2023/10/17 02:47:53;;;;;;;3.47;1.42;;;17.10;46.80;;;;;;5093082;28;20209;-57
2023/10/17 02:50:34;;;;;;;2.92;1.60;;;17.10;46.90;;;;;;5092314;28;20247;-58
2023/10/17 02:53:12;;;;;;;2.33;1.50;;;17.10;46.90;;;;;;5093097;28;20213;-54
2023/10/17 02:55:39;;;;;;;1.60;1.23;;;17.10;47.00;;;;;;5092622;28;20186;-56
2023/10/17 02:58:06;;;;;;;1.98;1.50;;;17.10;46.90;;;;;;5092164;28;20763;-58
2023/10/17 03:00:35;;;;;;;2.58;1.20;;;17.10;47.00;;;;;;5092383;28;20236;-57
2023/10/17 03:03:12;;;;;;;2.25;1.20;;;17.10;47.00;;;;;;5092872;28;20214;-57
2023/10/17 03:05:44;;;;;;;3.92;1.40;;;17.10;46.90;;;;;;5092067;28;20214;-56
2023/10/17 03:08:15;;;;;;;2.00;1.27;;;17.10;47.00;;;;;;5092777;28;20210;-57
2023/10/17 03:10:43;;;;;;;2.58;1.50;;;17.10;47.00;;;;;;5092518;28;20201;-57
2023/10/17 03:13:23;;;;;;;2.67;1.58;;;17.10;46.90;;;;;;5092188;28;20220;-58
2023/10/17 03:15:54;;;;;;;1.35;1.25;;;17.10;46.90;;;;;;5092328;28;20789;-57
2023/10/17 03:18:22;;;;;;;2.78;1.70;;;17.10;47.00;;;;;;5092109;28;20306;-55
2023/10/17 03:20:51;;;;;;;2.80;1.67;;;17.10;46.90;;;;;;5092447;28;20193;-56
2023/10/17 03:23:19;;;;;;;1.90;1.40;;;17.10;47.00;;;;;;5092454;28;20271;-58
2023/10/17 03:25:47;;;;;;;3.30;2.00;;;17.10;47.00;;;;;;5092063;28;20245;-58
2023/10/17 03:28:15;;;;;;;1.42;1.08;;;17.10;47.00;;;;;;5092214;28;20695;-58
2023/10/17 03:30:43;;;;;;;3.92;1.60;;;17.10;47.00;;;;;;5092439;28;20197;-58
2023/10/17 03:33:13;;;;;;;3.38;1.55;;;17.10;47.00;;;;;;5092044;28;20232;-58
2023/10/17 03:35:56;;;;;;;3.15;1.50;;;17.10;47.00;;;;;;5092409;28;20186;-57
2023/10/17 03:38:26;;;;;;;2.25;1.50;;;17.10;47.00;;;;;;5092455;28;20241;-56
2023/10/17 03:40:54;;;;;;;3.65;1.50;;;17.10;47.10;;;;;;5091962;28;20644;-55
2023/10/17 03:43:22;;;;;;;2.88;1.50;;;17.10;47.10;;;;;;5096498;28;20214;-58
2023/10/17 03:45:58;;;;;;;2.95;1.42;;;17.10;47.10;;;;;;5096500;28;20241;-57
2023/10/17 03:48:28;;;;;;;2.50;1.73;;;17.10;47.10;;;;;;5095998;28;20232;-55
2023/10/17 03:51:08;;;;;;;2.22;1.20;;;17.10;47.10;;;;;;5096461;28;20194;-56
2023/10/17 03:53:42;;;;;;;2.72;1.38;;;17.10;47.10;;;;;;5096509;28;20218;-57
2023/10/17 03:56:11;;;;;;;3.10;1.60;;;17.10;47.80;;;;;;5094463;28;20605;-58
2023/10/17 03:58:49;;;;;;;2.40;1.48;;;17.10;47.20;;;;;;5105204;28;20732;-56
2023/10/17 04:01:18;;;;;;;2.13;1.48;;;17.10;47.10;;;;;;5116291;28;20185;-58
2023/10/17 04:03:47;;;;;;;1.65;1.38;;;17.10;47.20;;;;;;5114911;28;20221;-58
2023/10/17 04:06:23;;;;;;;1.92;1.33;;;17.10;47.20;;;;;;5115710;28;20212;-53
2023/10/17 04:08:56;;;;;;;1.88;1.38;;;17.10;47.20;;;;;;5116659;28;20299;-57
2023/10/17 04:11:27;;;;;;;2.53;1.38;;;17.10;47.20;;;;;;5115967;28;20185;-58
2023/10/17 04:13:55;;;;;;;2.95;1.40;;;17.10;47.30;;;;;;5116289;28;20215;-55
2023/10/17 04:16:27;;;;;;;2.15;1.38;;;17.10;47.30;;;;;;5115979;28;20285;-56
2023/10/17 04:18:59;;;;;;;3.00;1.50;;;17.10;47.30;;;;;;5116001;28;20277;-58
2023/10/17 04:21:30;;;;;;;1.77;1.40;;;17.10;47.30;;;;;;5115952;28;20686;-57
2023/10/17 04:24:01;;;;;;;2.80;1.70;;;17.10;47.30;;;;;;5116052;28;20633;-58
2023/10/17 04:26:28;;;;;;;2.85;1.48;;;17.10;47.30;;;;;;5115933;28;20228;-58
2023/10/17 04:28:56;;;;;;;2.67;1.42;;;17.10;47.40;;;;;;5116021;28;20209;-57
2023/10/17 04:31:28;;;;;;;4.10;1.40;;;17.10;47.40;;;;;;5116092;28;20185;-57
2023/10/17 04:34:05;;;;;;;2.80;1.35;;;17.10;47.30;;;;;;5115774;28;20220;-56
2023/10/17 04:36:37;;;;;;;2.20;1.55;;;17.10;47.40;;;;;;5116037;28;20185;-58
2023/10/17 04:39:11;;;;;;;2.00;1.30;;;17.10;47.40;;;;;;5115835;28;20277;-58
2023/10/17 04:42:03;;;;;;;2.25;1.48;;;17.10;47.40;;;;;;5115590;28;20192;-55
2023/10/17 04:44:34;;;;;;;3.03;1.67;;;17.10;47.40;;;;;;5115215;28;20221;-57
2023/10/17 04:47:25;;;;;;;4.32;1.85;;;17.10;47.40;;;;;;5115387;28;20264;-56
2023/10/17 04:49:54;;;;;;;2.95;1.50;;;17.10;47.40;;;;;;5115406;28;20648;-57
2023/10/17 04:52:29;;;;;;;2.65;1.65;;;17.10;47.40;;;;;;5115498;28;20225;-58
2023/10/17 04:55:01;;;;;;;2.10;1.60;;;17.10;47.40;;;;;;5115267;28;20272;-57
2023/10/17 05:00:11;;;;;;;4.05;1.63;;;17.00;47.40;;;;;;5114097;28;20229;-58
2023/10/17 05:02:39;;;;;;;2.28;1.40;;;17.10;47.50;;;;;;5114645;28;20240;-58
2023/10/17 05:08:18;;;;;;;2.15;1.80;;;17.10;47.60;;;;;;5114058;28;20213;-57
2023/10/17 06:16:52;;;;;;;2.47;1.50;;;17.00;47.90;;;;;;5113756;28;20230;-56
2023/10/17 06:19:24;;;;;;;3.13;1.75;;;17.00;48.00;;;;;;5114160;28;20213;-55
2023/10/17 06:26:04;;;;;;;1.80;1.30;;;17.00;47.90;;;;;;5113128;28;20215;-56
2023/10/17 06:30:34;;;;;;;2.13;1.50;;;17.00;48.10;;;;;;5113482;28;20176;-56
2023/10/17 06:33:05;;;;;;;2.30;1.63;;;17.00;48.70;;;;;;5113666;28;20306;-57
2023/10/17 06:35:33;;;;;;;3.67;1.73;;;17.00;48.10;;;;;;5113705;28;20185;-58
2023/10/17 06:37:59;;;;;;;2.78;1.48;;;17.00;48.50;;;;;;5113264;28;20266;-56
2023/10/17 06:40:34;;;;;;;4.95;1.50;;;17.00;48.20;;;;;;5113625;28;20186;-58
2023/10/17 06:43:06;;;;;;;2.40;1.63;;;17.00;48.10;;;;;;5113367;28;20255;-57
2023/10/17 06:45:37;;;;;;;3.45;2.00;;;17.00;48.20;;;;;;5109423;28;20217;-58
2023/10/17 06:48:08;;;;;;;3.35;1.70;;;17.00;48.20;;;;;;5112307;28;20216;-58
2023/10/17 06:53:18;;;;;;;2.88;1.75;;;17.00;48.30;;;;;;5108919;28;20221;-56
2023/10/17 06:55:47;;;;;;;5.80;1.80;;;17.00;48.30;;;;;;5105001;28;20743;-59
2023/10/17 06:58:15;;;;;;;3.15;1.60;;;17.00;48.40;;;;;;5099702;28;20240;-59
2023/10/17 07:00:49;;;;;;;2.92;1.42;;;17.00;48.40;;;;;;5067205;28;20195;-59
2023/10/17 07:03:24;;;;;;;3.83;1.70;;;17.10;48.50;;;;;;5055011;28;20273;-59
2023/10/17 07:05:52;;;;;;;5.15;1.88;;;17.10;48.50;;;;;;5048994;28;20215;-58
2023/10/17 07:08:20;;;;;;;2.78;1.50;;;17.10;48.50;;;;;;5060783;28;20310;-58
2023/10/17 07:11:09;;;;;;;4.95;2.05;;;17.10;48.50;;;;;;5069531;28;20198;-57
2023/10/17 07:13:59;;;;;;;1.50;1.40;;;17.10;48.50;;;;;;5067222;28;20654;-57
2023/10/17 07:16:33;;;;;;;2.03;1.60;;;17.20;48.60;;;;;;5048800;28;20192;-59
2023/10/17 07:19:46;;;;;;;2.80;1.52;;;17.20;48.60;;;;;;5051139;28;20298;-59
2023/10/17 07:22:05;;;;;;;3.53;1.60;;;17.20;48.60;;;;;;5059412;28;20387;-57
2023/10/17 07:24:35;;;;;;;13.82;1.95;;;17.30;48.60;;;;;;5067443;28;20222;-58
2023/10/17 07:27:03;;;;;;;5.57;1.60;;;17.30;48.70;;;;;;5068512;28;20207;-59
2023/10/17 07:29:33;;;;;;;8.30;1.77;;;17.30;48.60;;;;;;5066335;28;20245;-58
2023/10/17 07:32:09;;;;;;;4.65;1.77;;;17.30;48.70;;;;;;5055206;28;20184;-58
2023/10/17 07:34:38;;;;;;;2.70;1.73;;;17.40;48.70;;;;;;5048379;28;20310;-57
2023/10/17 07:37:18;;;;;;;4.55;1.80;;;17.40;48.80;;;;;;5043910;28;20884;-58
2023/10/17 07:40:15;;;;;;;6.65;1.90;;;17.40;48.70;;;;;;5044236;28;20230;-58
2023/10/17 07:42:45;;;;;;;3.75;1.60;;;17.40;48.70;;;;;;5020679;28;20200;-58
2023/10/17 07:45:15;;;;;;;7.90;1.83;;;17.40;48.80;;;;;;5062738;28;20260;-59
2023/10/17 07:47:51;;;;;;;3.92;1.60;;;17.40;48.80;;;;;;5060762;28;20222;-58
2023/10/17 07:50:20;;;;;;;2.90;1.50;;;17.40;48.70;;;;;;5048260;28;20290;-59
2023/10/17 07:52:51;;;;;;;4.65;1.45;;;17.50;48.80;;;;;;5024267;28;21591;-59
2023/10/17 07:55:21;;;;;;;3.38;1.80;;;17.40;48.70;;;;;;5024850;28;20669;-59
2023/10/17 07:57:51;;;;;;;7.50;1.65;;;17.40;48.80;;;;;;5059444;28;20641;-58
2023/10/17 08:00:33;;;;;;;5.18;1.63;;;17.40;48.80;;;;;;5102830;28;20301;-57
2023/10/17 08:03:08;;;;;;;3.92;1.60;;;17.40;48.70;;;;;;5108825;28;20192;-58
2023/10/17 08:05:38;;;;;;;6.07;1.70;;;17.50;48.80;;;;;;5100214;28;20212;-58
2023/10/17 08:08:08;;;;;;;12.43;1.42;;;17.50;48.80;;;;;;5087776;28;20567;-57
2023/10/17 08:10:38;;;;;;;2.75;1.80;;;17.50;48.90;;;;;;5097519;28;20201;-58
2023/10/17 08:13:07;;;;;;;5.35;1.83;;;17.50;48.90;;;;;;5097524;28;20254;-59
2023/10/17 08:15:38;;;;;;;4.40;1.73;;;17.50;48.80;;;;;;5097886;28;20220;-57
2023/10/17 08:18:14;;;;;;;4.00;2.08;;;17.60;48.90;;;;;;5089413;28;20198;-59
2023/10/17 08:21:32;;;;;;;5.70;2.30;;;17.60;48.90;;;;;;5108594;28;20632;-58
2023/10/17 08:23:41;;;;;;;5.40;1.80;;;17.60;49.60;;;;;;5077109;28;20202;-58
2023/10/17 08:26:11;;;;;;;5.40;1.67;;;17.60;49.00;;;;;;5045977;28;20229;-59
2023/10/17 08:28:46;;;;;;;4.85;1.52;;;17.60;48.90;;;;;;5090955;28;20232;-56
2023/10/17 08:31:22;;;;;;;4.60;1.50;;;17.60;48.90;;;;;;5092365;28;20194;-59
2023/10/17 08:34:08;;;;;;;4.88;1.70;;;17.70;49.00;;;;;;5092649;28;20224;-59
2023/10/17 08:36:48;;;;;;;7.93;1.95;;;17.70;49.00;;;;;;5110621;28;20201;-60
2023/10/17 08:39:51;;;;;;;4.15;1.90;;;17.70;49.00;;;;;;5112886;28;20229;-60
2023/10/17 08:42:30;;;;;;;2.58;1.65;;;17.70;49.00;;;;;;5112714;28;20198;-59
2023/10/17 08:44:57;;;;;;;6.38;1.40;;;17.70;49.00;;;;;;5111739;28;20301;-58
2023/10/17 08:47:29;;;;;;;3.28;1.52;;;17.70;49.00;;;;;;5109332;28;20224;-59
2023/10/17 08:50:02;;;;;;;7.03;1.83;;;17.70;48.90;;;;;;5036161;28;20221;-59
2023/10/17 08:52:35;;;;;;;2.83;1.58;;;17.70;49.00;;;;;;5092099;28;20209;-59
2023/10/17 08:55:02;;;;;;;3.25;1.55;;;17.80;49.10;;;;;;5111703;28;20728;-59
2023/10/17 08:57:30;;;;;;;6.40;1.73;;;17.80;49.10;;;;;;5110928;28;20204;-59
2023/10/17 09:00:22;;;;;;;5.38;1.88;;;17.80;49.10;;;;;;5111434;28;20264;-58
2023/10/17 09:02:57;;;;;;;3.40;1.55;;;17.80;49.00;;;;;;5091751;28;20201;-58
2023/10/17 09:05:27;;;;;;;3.25;1.60;;;17.80;49.00;;;;;;5091927;28;20252;-59
2023/10/17 09:07:56;;;;;;;4.55;1.60;;;17.80;49.00;;;;;;5091967;28;20285;-58
2023/10/17 09:10:36;;;;;;;4.03;1.42;;;17.80;49.00;;;;;;5092210;28;20226;-59
2023/10/17 09:15:50;;;;;;;4.40;1.50;;;17.90;49.20;;;;;;5112199;28;20747;-59
2023/10/17 09:18:27;;;;;;;4.15;1.60;;;17.90;49.20;;;;;;5112465;28;20280;-59
2023/10/17 09:20:56;;;;;;;4.50;1.80;;;17.90;49.10;;;;;;5111698;28;20213;-58
2023/10/17 09:23:24;;;;;;;2.75;1.63;;;17.90;49.10;;;;;;5111105;28;20196;-58
2023/10/17 09:25:55;;;;;;;4.75;1.90;;;17.90;49.80;;;;;;5111989;28;20598;-59
2023/10/17 09:28:24;;;;;;;2.55;1.65;;;17.90;49.10;;;;;;5109758;28;20284;-59
2023/10/17 09:30:58;;;;;;;4.88;1.88;;;17.90;49.10;;;;;;5111057;28;20307;-58
2023/10/17 09:33:30;;;;;;;4.35;1.60;;;17.90;49.10;;;;;;5112196;28;20246;-59
2023/10/17 09:36:00;;;;;;;2.88;1.50;;;17.90;49.10;;;;;;5111813;28;20220;-58
2023/10/17 09:38:27;;;;;;;12.95;2.10;;;17.90;49.10;;;;;;5109763;28;20681;-58
2023/10/17 09:40:58;;;;;;;3.97;1.70;;;18.00;49.10;;;;;;5111385;28;20217;-58
2023/10/17 09:43:25;;;;;;;3.00;1.65;;;18.00;49.20;;;;;;5110913;28;20190;-59
2023/10/17 09:45:53;;;;;;;2.90;1.95;;;18.00;49.90;;;;;;5111907;28;20265;-60
2023/10/17 09:48:32;;;;;;;3.75;1.80;;;18.00;49.20;;;;;;5111481;28;20193;-58
2023/10/17 09:51:02;;;;;;;4.25;1.70;;;18.00;49.10;;;;;;5103085;28;20718;-59
2023/10/17 09:53:33;;;;;;;5.00;1.60;;;18.00;49.20;;;;;;5091367;28;20190;-59
2023/10/17 09:56:03;;;;;;;3.03;1.83;;;18.00;49.20;;;;;;5111531;28;20249;-58
2023/10/17 09:58:34;;;;;;;2.75;1.63;;;18.00;49.10;;;;;;5110330;28;20283;-58
2023/10/17 10:01:06;;;;;;;3.05;2.20;;;18.00;49.10;;;;;;5111284;28;20303;-59
2023/10/17 10:03:35;;;;;;;4.03;1.70;;;18.00;49.20;;;;;;5111238;28;20191;-59
2023/10/17 10:06:25;;;;;;;3.63;1.77;;;18.00;49.10;;;;;;5098293;28;20222;-59
2023/10/17 10:08:56;;;;;;;2.35;1.58;;;18.10;49.30;;;;;;5110315;28;20177;-58
2023/10/17 10:11:58;;;;;;;3.65;1.73;;;18.10;49.20;;;;;;5090896;28;20229;-57
2023/10/17 10:14:43;;;;;;;3.17;1.70;;;18.10;49.30;;;;;;5089814;28;20205;-53
2023/10/17 10:17:13;;;;;;;1.85;1.38;;;18.10;49.30;;;;;;5108722;28;20193;-58
2023/10/17 10:19:58;;;;;;;2.67;1.40;;;18.10;49.30;;;;;;5111217;28;20659;-58
2023/10/17 10:22:51;;;;;;;2.70;1.67;;;18.10;49.20;;;;;;5111101;28;20204;-57
2023/10/17 10:25:19;;;;;;;3.03;2.05;;;18.10;49.30;;;;;;5110292;28;20308;-57
2023/10/17 10:27:49;;;;;;;3.88;1.80;;;18.00;49.20;;;;;;5109641;28;20217;-57
2023/10/17 10:30:33;;;;;;;3.47;2.35;;;18.10;49.30;;;;;;5110459;28;20587;-59
2023/10/17 10:33:00;;;;;;;4.65;2.05;;;18.10;49.30;;;;;;5110191;28;20723;-56
2023/10/17 10:35:30;;;;;;;4.55;2.00;;;18.10;49.30;;;;;;5110330;28;20300;-57
2023/10/17 10:37:59;;;;;;;4.07;1.83;;;18.10;49.30;;;;;;5110955;28;20290;-55
2023/10/17 10:40:30;;;;;;;4.28;2.00;;;18.10;49.30;;;;;;5108659;28;20232;-56
2023/10/17 10:42:59;;;;;;;6.85;3.15;;;18.10;49.30;;;;;;5108757;28;20228;-56
2023/10/17 10:45:36;;;;;;;6.22;2.05;;;18.10;49.30;;;;;;5110780;28;20644;-54
2023/10/17 10:48:07;;;;;;;5.13;2.08;;;18.20;49.30;;;;;;5109592;28;20208;-57
2023/10/17 10:50:35;;;;;;;6.65;2.10;;;18.10;49.30;;;;;;5089962;28;20691;-56
2023/10/17 10:53:18;;;;;;;5.28;2.40;;;18.10;49.30;;;;;;5089656;28;20571;-56
2023/10/17 10:55:55;;;;;;;4.07;2.40;;;18.20;49.30;;;;;;5109179;28;20677;-57
2023/10/17 10:58:22;;;;;;;5.05;2.00;;;18.20;49.40;;;;;;5108493;28;20276;-57
2023/10/17 11:00:50;;;;;;;2.85;1.85;;;18.20;49.40;;;;;;5109616;28;20379;-55
2023/10/17 11:03:19;;;;;;;3.35;2.05;;;18.20;49.40;;;;;;5109360;28;20197;-56
2023/10/17 11:05:53;;;;;;;4.72;2.03;;;18.20;49.30;;;;;;5099567;28;20213;-57
2023/10/17 11:08:22;;;;;;;3.13;1.98;;;18.20;49.30;;;;;;5106810;28;20316;-57
2023/10/17 11:10:49;;;;;;;4.82;2.00;;;18.20;49.20;;;;;;5089272;28;20304;-57
2023/10/17 11:13:17;;;;;;;3.70;1.98;;;18.20;49.30;;;;;;5086495;28;20197;-57
2023/10/17 11:15:44;;;;;;;2.75;1.70;;;18.30;49.30;;;;;;5109060;28;20324;-57
2023/10/17 11:18:12;;;;;;;3.78;1.92;;;18.20;49.30;;;;;;5107976;28;20658;-57
2023/10/17 11:20:41;;;;;;;3.55;2.13;;;18.30;49.30;;;;;;5110081;28;20225;-55
2023/10/17 11:23:11;;;;;;;2.97;1.95;;;18.30;49.30;;;;;;5109759;28;20677;-54
2023/10/17 11:25:44;;;;;;;8.52;2.50;;;18.30;49.30;;;;;;5109794;28;20236;-57
2023/10/17 11:28:11;;;;;;;3.20;2.00;;;18.30;49.30;;;;;;5088023;28;20218;-57
2023/10/17 11:30:41;;;;;;;3.65;2.25;;;18.30;49.20;;;;;;5088699;28;20218;-56
2023/10/17 11:33:11;;;;;;;3.63;1.92;;;18.30;49.20;;;;;;5109517;28;20220;-57
2023/10/17 11:35:46;;;;;;;3.80;2.20;;;18.40;49.40;;;;;;5109332;28;20393;-57
2023/10/17 11:38:33;;;;;;;5.60;1.83;;;18.40;49.40;;;;;;5109117;28;20257;-56
2023/10/17 11:41:02;;;;;;;4.72;2.00;;;18.40;49.40;;;;;;5089968;28;20275;-56
2023/10/17 11:43:34;;;;;;;3.83;2.10;;;18.40;49.40;;;;;;5109697;28;20191;-56
2023/10/17 11:46:02;;;;;;;1.88;1.60;;;18.40;49.30;;;;;;5109134;28;20225;-56
2023/10/17 11:48:31;;;;;;;2.72;2.08;;;18.40;49.40;;;;;;5109810;28;20216;-57
2023/10/17 11:51:09;;;;;;;3.67;2.17;;;18.30;49.20;;;;;;5100591;28;20605;-56
2023/10/17 11:54:03;;;;;;;6.40;2.50;;;18.40;49.40;;;;;;5108571;28;20193;-57
2023/10/17 11:56:32;;;;;;;3.00;1.70;;;18.40;49.40;;;;;;5089373;28;20821;-57
2023/10/17 11:59:01;;;;;;;6.03;1.67;;;18.40;49.40;;;;;;5088833;28;20329;-55
2023/10/17 12:01:28;;;;;;;2.58;1.60;;;18.40;49.40;;;;;;5089666;28;20226;-57
2023/10/17 12:03:57;;;;;;;7.60;2.22;;;18.40;49.40;;;;;;5092854;28;20652;-57
2023/10/17 12:06:26;;;;;;;4.43;2.00;;;18.40;49.40;;;;;;5097183;28;20213;-57
2023/10/17 12:08:54;;;;;;;5.60;2.42;;;18.40;49.60;;;;;;5097531;28;20549;-57
2023/10/17 12:11:22;;;;;;;6.22;2.05;;;18.40;49.60;;;;;;5098810;28;20252;-58
2023/10/17 12:13:50;;;;;;;7.60;2.20;;;18.40;49.60;;;;;;5095164;28;20204;-56
2023/10/17 12:16:17;;;;;;;9.52;2.28;;;18.40;49.60;;;;;;5104026;28;20270;-57
2023/10/17 12:18:45;;;;;;;9.35;2.30;;;18.50;49.70;;;;;;5100315;28;20189;-55
2023/10/17 12:21:14;;;;;;;6.47;2.20;;;18.50;49.60;;;;;;5094455;28;20221;-55
2023/10/17 12:23:41;;;;;;;8.98;2.28;;;18.50;49.70;;;;;;5102816;28;20192;-57
2023/10/17 12:26:13;;;;;;;3.83;2.25;;;18.50;49.60;;;;;;5109671;28;20352;-53
2023/10/17 12:28:42;;;;;;;10.18;2.70;;;18.50;49.60;;;;;;5093087;28;20218;-55
2023/10/17 12:31:10;;;;;;;3.78;2.20;;;18.60;49.70;;;;;;5108028;28;20649;-56
2023/10/17 12:33:38;;;;;;;6.15;2.10;;;18.60;49.70;;;;;;5098735;28;20200;-55
2023/10/17 12:36:06;;;;;;;12.50;2.33;;;18.60;49.70;;;;;;5092679;28;20221;-55
2023/10/17 12:38:35;;;;;;;7.65;2.20;;;18.60;49.80;;;;;;5097935;28;20190;-57
2023/10/17 12:41:06;;;;;;;11.23;6.03;;;18.70;49.80;;;;;;5093346;28;20224;-60
2023/10/17 12:43:34;;;;;;;18.13;10.70;;;18.70;49.80;;;;;;5091028;28;20230;-61
2023/10/17 12:46:01;;;;;;;23.23;16.45;;;18.70;49.80;;;;;;5101371;27;20248;-59
2023/10/17 12:48:29;;;;;;;16.65;11.95;;;18.80;49.90;;;;;;5099896;28;20221;-60
2023/10/17 12:50:56;;;;;;;17.98;10.40;;;18.90;50.00;;;;;;5102065;28;20219;-61
2023/10/17 12:53:23;;;;;;;15.20;8.52;;;19.00;50.10;;;;;;5097091;28;20200;-60
2023/10/17 12:55:50;;;;;;;12.02;7.57;;;19.00;50.10;;;;;;5094044;28;20256;-57
2023/10/17 12:58:22;;;;;;;11.73;6.35;;;19.00;50.10;;;;;;5091384;28;20189;-59
2023/10/17 13:00:49;;;;;;;10.45;5.85;;;19.10;50.10;;;;;;5094908;28;20812;-61
2023/10/17 13:03:18;;;;;;;28.75;22.40;;;19.10;50.10;;;;;;5091583;28;20237;-62
2023/10/17 13:05:48;;;;;;;27.67;20.55;;;19.10;50.10;;;;;;5095437;28;20227;-60
2023/10/17 13:08:15;;;;;;;37.95;29.30;;;19.10;50.10;;;;;;5094815;28;20213;-57
2023/10/17 13:10:50;;;;;;;29.70;21.52;;;19.20;50.10;;;;;;5092581;28;20229;-59
2023/10/17 13:13:17;;;;;;;23.85;16.00;;;19.20;49.80;;;;;;5093309;28;20197;-62
2023/10/17 13:15:44;;;;;;;21.60;12.70;;;19.20;49.80;;;;;;5087407;28;20279;-57
2023/10/17 13:18:12;;;;;;;12.02;9.02;;;19.20;49.90;;;;;;5097467;28;20575;-59
2023/10/17 13:20:46;;;;;;;11.73;7.50;;;19.20;49.90;;;;;;5087691;28;20226;-59
2023/10/17 13:23:16;;;;;;;7.75;6.25;;;19.20;49.90;;;;;;5046855;28;20293;-59
2023/10/17 13:25:44;;;;;;;10.02;5.47;;;19.20;50.00;;;;;;5093203;28;20202;-59
2023/10/17 13:28:11;;;;;;;15.52;5.90;;;19.20;50.00;;;;;;5093545;28;20217;-59
2023/10/17 13:30:38;;;;;;;11.40;4.68;;;19.20;50.20;;;;;;5092691;28;20194;-58
2023/10/17 13:33:06;;;;;;;10.07;4.35;;;19.20;50.10;;;;;;5101870;28;20269;-53
2023/10/17 13:35:37;;;;;;;9.35;4.45;;;19.20;50.00;;;;;;5091388;28;20236;-58
2023/10/17 13:38:05;;;;;;;7.20;3.70;;;19.20;50.20;;;;;;5093846;28;20205;-57
2023/10/17 13:40:34;;;;;;;5.93;3.58;;;19.20;50.20;;;;;;5092052;28;20837;-58
2023/10/17 13:43:01;;;;;;;7.63;3.38;;;19.20;50.30;;;;;;5093833;28;20276;-57
2023/10/17 13:45:29;;;;;;;7.20;3.47;;;19.30;50.30;;;;;;5092686;28;20197;-55
2023/10/17 13:47:58;;;;;;;5.90;3.15;;;19.30;50.30;;;;;;5090387;28;20228;-58
2023/10/17 13:50:30;;;;;;;7.07;3.03;;;19.30;50.40;;;;;;5091283;28;21105;-58
2023/10/17 13:53:06;;;;;;;7.35;3.08;;;19.30;50.30;;;;;;5080675;28;20228;-56
2023/10/17 13:55:41;;;;;;;5.35;2.80;;;19.30;50.30;;;;;;5067636;28;20202;-58
2023/10/17 13:58:11;;;;;;;6.65;2.92;;;19.30;50.40;;;;;;5093459;28;20228;-56
2023/10/17 14:00:44;;;;;;;9.40;3.20;;;19.20;50.20;;;;;;5038779;28;20233;-55
2023/10/17 14:03:14;;;;;;;6.53;2.72;;;19.30;50.40;;;;;;5049950;28;20221;-56
2023/10/17 14:05:47;;;;;;;5.47;2.70;;;19.30;50.40;;;;;;5012094;28;20200;-57
2023/10/17 14:08:25;;;;;;;7.63;2.63;;;19.30;50.40;;;;;;5002607;28;21813;-53
2023/10/17 14:10:54;;;;;;;7.35;2.90;;;19.30;50.30;;;;;;5030354;28;20200;-57
2023/10/17 14:13:21;;;;;;;8.05;2.80;;;19.20;50.30;;;;;;5026231;28;20252;-57
2023/10/17 14:15:51;;;;;;;6.82;2.67;;;19.20;50.20;;;;;;5045743;28;20223;-58
2023/10/17 14:18:19;;;;;;;43.13;7.70;;;19.20;50.20;;;;;;5038510;28;20223;-56
2023/10/17 14:21:04;;;;;;;54.97;12.02;;;19.20;50.30;;;;;;5030986;28;20200;-57
2023/10/17 14:23:32;;;;;;;107.88;34.97;;;19.20;50.30;;;;;;5030835;28;20207;-52
2023/10/17 14:26:00;;;;;;;138.23;50.28;;;19.20;50.40;;;;;;5028612;28;20311;-56
2023/10/17 14:28:29;;;;;;;95.20;36.30;;;19.20;50.30;;;;;;5026498;28;20326;-57
2023/10/17 14:30:55;;;;;;;108.13;42.65;;;19.20;50.40;;;;;;5084321;28;20197;-57
2023/10/17 14:33:22;;;;;;;87.25;38.20;;;19.20;50.30;;;;;;5087961;28;20209;-55